sensor_id;sensor_type;location;lat;lon;timestamp;P1;durP1;ratioP1;P2;durP2;ratioP2
64351;SDS011;50680;52.626;-8.668;2022-09-29T00:01:04;6.70;;;1.10;;
64351;SDS011;50680;52.626;-8.668;2022-09-29T00:03:32;5.03;;;0.90;;
64351;SDS011;50680;52.626;-8.668;2022-09-29T00:05:59;3.95;;;0.95;;
64351;SDS011;50680;52.626;-8.668;2022-09-29T00:08:27;5.78;;;1.23;;
64351;SDS011;50680;52.626;-8.668;2022-09-29T00:10:55;7.25;;;0.90;;
64351;SDS011;50680;52.626;-8.668;2022-09-29T00:13:22;13.07;;;0.90;;
64351;SDS011;50680;52.626;-8.668;2022-09-29T00:15:59;8.57;;;1.20;;
64351;SDS011;50680;52.626;-8.668;2022-09-29T00:18:28;6.05;;;1.05;;
64351;SDS011;50680;52.626;-8.668;2022-09-29T00:20:58;5.55;;;0.90;;
64351;SDS011;50680;52.626;-8.668;2022-09-29T00:23:30;3.00;;;0.75;;
64351;SDS011;50680;52.626;-8.668;2022-09-29T00:25:59;4.80;;;0.90;;
64351;SDS011;50680;52.626;-8.668;2022-09-29T00:28:27;7.15;;;0.80;;
64351;SDS011;50680;52.626;-8.668;2022-09-29T00:30:56;3.28;;;0.90;;
64351;SDS011;50680;52.626;-8.668;2022-09-29T00:33:24;6.72;;;0.88;;
64351;SDS011;50680;52.626;-8.668;2022-09-29T00:35:56;6.28;;;1.20;;
64351;SDS011;50680;52.626;-8.668;2022-09-29T00:38:27;6.93;;;0.90;;
64351;SDS011;50680;52.626;-8.668;2022-09-29T00:40:55;4.57;;;1.10;;
64351;SDS011;50680;52.626;-8.668;2022-09-29T00:43:44;3.10;;;1.15;;
64351;SDS011;50680;52.626;-8.668;2022-09-29T00:51:38;4.25;;;0.95;;
64351;SDS011;50680;52.626;-8.668;2022-09-29T00:54:08;3.40;;;0.95;;
64351;SDS011;50680;52.626;-8.668;2022-09-29T00:56:36;9.13;;;1.65;;
64351;SDS011;50680;52.626;-8.668;2022-09-29T00:59:08;8.32;;;1.05;;
64351;SDS011;50680;52.626;-8.668;2022-09-29T01:01:38;10.13;;;1.50;;
64351;SDS011;50680;52.626;-8.668;2022-09-29T01:04:08;7.47;;;0.98;;
64351;SDS011;50680;52.626;-8.668;2022-09-29T01:06:49;3.17;;;1.00;;
64351;SDS011;50680;52.626;-8.668;2022-09-29T01:09:20;8.35;;;0.90;;
64351;SDS011;50680;52.626;-8.668;2022-09-29T01:11:52;5.18;;;1.10;;
64351;SDS011;50680;52.626;-8.668;2022-09-29T01:14:24;5.82;;;0.90;;
64351;SDS011;50680;52.626;-8.668;2022-09-29T01:16:52;3.42;;;0.90;;
64351;SDS011;50680;52.626;-8.668;2022-09-29T01:19:27;2.47;;;0.80;;
64351;SDS011;50680;52.626;-8.668;2022-09-29T01:24:54;6.43;;;1.00;;
64351;SDS011;50680;52.626;-8.668;2022-09-29T01:30:19;7.38;;;1.25;;
64351;SDS011;50680;52.626;-8.668;2022-09-29T01:41:07;5.65;;;1.30;;
64351;SDS011;50680;52.626;-8.668;2022-09-29T01:43:45;3.83;;;1.10;;
64351;SDS011;50680;52.626;-8.668;2022-09-29T01:49:02;10.25;;;1.25;;
64351;SDS011;50680;52.626;-8.668;2022-09-29T01:57:11;7.18;;;1.10;;
64351;SDS011;50680;52.626;-8.668;2022-09-29T01:59:51;3.80;;;0.98;;
64351;SDS011;50680;52.626;-8.668;2022-09-29T02:02:26;3.15;;;1.00;;
64351;SDS011;50680;52.626;-8.668;2022-09-29T02:05:00;6.75;;;1.30;;
64351;SDS011;50680;52.626;-8.668;2022-09-29T02:07:32;5.45;;;2.03;;
64351;SDS011;50680;52.626;-8.668;2022-09-29T02:10:13;6.18;;;1.00;;
64351;SDS011;50680;52.626;-8.668;2022-09-29T02:12:57;7.78;;;1.35;;
64351;SDS011;50680;52.626;-8.668;2022-09-29T02:15:29;6.27;;;1.10;;
64351;SDS011;50680;52.626;-8.668;2022-09-29T02:18:02;8.43;;;1.20;;
64351;SDS011;50680;52.626;-8.668;2022-09-29T02:20:35;5.45;;;1.20;;
64351;SDS011;50680;52.626;-8.668;2022-09-29T02:23:02;6.85;;;1.23;;
64351;SDS011;50680;52.626;-8.668;2022-09-29T02:25:29;9.55;;;1.70;;
64351;SDS011;50680;52.626;-8.668;2022-09-29T02:28:00;10.02;;;1.20;;
64351;SDS011;50680;52.626;-8.668;2022-09-29T02:30:27;9.18;;;1.40;;
64351;SDS011;50680;52.626;-8.668;2022-09-29T02:32:55;7.72;;;1.35;;
64351;SDS011;50680;52.626;-8.668;2022-09-29T02:35:22;5.50;;;1.27;;
64351;SDS011;50680;52.626;-8.668;2022-09-29T02:40:52;7.25;;;1.52;;
64351;SDS011;50680;52.626;-8.668;2022-09-29T02:46:27;4.72;;;1.15;;
64351;SDS011;50680;52.626;-8.668;2022-09-29T02:51:56;6.32;;;1.58;;
64351;SDS011;50680;52.626;-8.668;2022-09-29T02:57:20;9.05;;;1.27;;
64351;SDS011;50680;52.626;-8.668;2022-09-29T03:02:37;5.78;;;1.40;;
64351;SDS011;50680;52.626;-8.668;2022-09-29T03:05:06;6.45;;;1.40;;
64351;SDS011;50680;52.626;-8.668;2022-09-29T03:07:38;4.57;;;1.80;;
64351;SDS011;50680;52.626;-8.668;2022-09-29T03:10:06;10.33;;;1.70;;
64351;SDS011;50680;52.626;-8.668;2022-09-29T03:12:35;7.28;;;1.20;;
64351;SDS011;50680;52.626;-8.668;2022-09-29T03:15:03;7.13;;;1.10;;
64351;SDS011;50680;52.626;-8.668;2022-09-29T03:17:30;5.68;;;1.30;;
64351;SDS011;50680;52.626;-8.668;2022-09-29T03:19:57;4.90;;;1.30;;
64351;SDS011;50680;52.626;-8.668;2022-09-29T03:22:24;5.80;;;1.77;;
64351;SDS011;50680;52.626;-8.668;2022-09-29T03:24:51;11.35;;;2.45;;
64351;SDS011;50680;52.626;-8.668;2022-09-29T03:27:18;7.15;;;1.63;;
64351;SDS011;50680;52.626;-8.668;2022-09-29T03:29:45;9.85;;;1.52;;
64351;SDS011;50680;52.626;-8.668;2022-09-29T03:32:12;5.90;;;1.55;;
64351;SDS011;50680;52.626;-8.668;2022-09-29T03:34:39;6.28;;;1.67;;
64351;SDS011;50680;52.626;-8.668;2022-09-29T03:37:05;6.47;;;2.00;;
64351;SDS011;50680;52.626;-8.668;2022-09-29T03:39:33;5.07;;;1.30;;
64351;SDS011;50680;52.626;-8.668;2022-09-29T03:42:00;6.10;;;1.23;;
64351;SDS011;50680;52.626;-8.668;2022-09-29T03:44:27;4.47;;;1.40;;
64351;SDS011;50680;52.626;-8.668;2022-09-29T03:46:54;10.88;;;1.35;;
64351;SDS011;50680;52.626;-8.668;2022-09-29T03:49:20;11.23;;;1.42;;
64351;SDS011;50680;52.626;-8.668;2022-09-29T03:51:47;6.07;;;1.08;;
64351;SDS011;50680;52.626;-8.668;2022-09-29T03:54:14;2.90;;;0.90;;
64351;SDS011;50680;52.626;-8.668;2022-09-29T03:56:41;5.90;;;0.73;;
64351;SDS011;50680;52.626;-8.668;2022-09-29T03:59:08;9.50;;;0.82;;
64351;SDS011;50680;52.626;-8.668;2022-09-29T04:01:37;6.20;;;0.90;;
64351;SDS011;50680;52.626;-8.668;2022-09-29T04:04:04;3.70;;;0.57;;
64351;SDS011;50680;52.626;-8.668;2022-09-29T04:06:34;3.05;;;0.70;;
64351;SDS011;50680;52.626;-8.668;2022-09-29T04:09:02;3.70;;;0.70;;
64351;SDS011;50680;52.626;-8.668;2022-09-29T04:11:29;2.92;;;0.80;;
64351;SDS011;50680;52.626;-8.668;2022-09-29T04:13:57;2.53;;;0.60;;
64351;SDS011;50680;52.626;-8.668;2022-09-29T04:16:24;1.90;;;0.60;;
64351;SDS011;50680;52.626;-8.668;2022-09-29T04:18:51;7.57;;;0.70;;
64351;SDS011;50680;52.626;-8.668;2022-09-29T04:21:18;2.55;;;0.40;;
64351;SDS011;50680;52.626;-8.668;2022-09-29T04:23:45;8.55;;;0.70;;
64351;SDS011;50680;52.626;-8.668;2022-09-29T04:26:13;4.53;;;0.40;;
64351;SDS011;50680;52.626;-8.668;2022-09-29T04:28:40;4.35;;;0.47;;
64351;SDS011;50680;52.626;-8.668;2022-09-29T04:31:07;5.78;;;0.60;;
64351;SDS011;50680;52.626;-8.668;2022-09-29T04:33:34;4.45;;;0.40;;
64351;SDS011;50680;52.626;-8.668;2022-09-29T04:36:01;3.28;;;0.50;;
64351;SDS011;50680;52.626;-8.668;2022-09-29T04:38:28;6.28;;;0.57;;
64351;SDS011;50680;52.626;-8.668;2022-09-29T04:40:55;6.38;;;0.50;;
64351;SDS011;50680;52.626;-8.668;2022-09-29T04:43:23;5.05;;;0.40;;
64351;SDS011;50680;52.626;-8.668;2022-09-29T04:45:50;3.22;;;0.60;;
64351;SDS011;50680;52.626;-8.668;2022-09-29T04:48:17;7.25;;;0.50;;
64351;SDS011;50680;52.626;-8.668;2022-09-29T04:50:44;4.95;;;1.58;;
64351;SDS011;50680;52.626;-8.668;2022-09-29T04:53:11;4.38;;;0.60;;
64351;SDS011;50680;52.626;-8.668;2022-09-29T04:55:38;4.13;;;0.40;;
64351;SDS011;50680;52.626;-8.668;2022-09-29T04:58:05;7.28;;;0.50;;
64351;SDS011;50680;52.626;-8.668;2022-09-29T05:00:32;5.05;;;0.50;;
64351;SDS011;50680;52.626;-8.668;2022-09-29T05:03:00;3.83;;;0.40;;
64351;SDS011;50680;52.626;-8.668;2022-09-29T05:05:27;4.95;;;0.70;;
64351;SDS011;50680;52.626;-8.668;2022-09-29T05:07:54;2.58;;;0.60;;
64351;SDS011;50680;52.626;-8.668;2022-09-29T05:10:21;3.97;;;0.38;;
64351;SDS011;50680;52.626;-8.668;2022-09-29T05:12:48;2.35;;;0.60;;
64351;SDS011;50680;52.626;-8.668;2022-09-29T05:15:17;2.47;;;0.50;;
64351;SDS011;50680;52.626;-8.668;2022-09-29T05:17:50;3.42;;;0.50;;
64351;SDS011;50680;52.626;-8.668;2022-09-29T05:20:17;5.78;;;0.52;;
64351;SDS011;50680;52.626;-8.668;2022-09-29T05:22:44;1.27;;;0.63;;
64351;SDS011;50680;52.626;-8.668;2022-09-29T05:25:11;4.63;;;0.55;;
64351;SDS011;50680;52.626;-8.668;2022-09-29T05:27:38;7.57;;;0.60;;
64351;SDS011;50680;52.626;-8.668;2022-09-29T05:30:05;6.45;;;0.80;;
64351;SDS011;50680;52.626;-8.668;2022-09-29T05:32:32;3.63;;;0.50;;
64351;SDS011;50680;52.626;-8.668;2022-09-29T05:34:59;6.55;;;0.57;;
64351;SDS011;50680;52.626;-8.668;2022-09-29T05:37:26;2.05;;;0.35;;
64351;SDS011;50680;52.626;-8.668;2022-09-29T05:39:53;8.35;;;0.80;;
64351;SDS011;50680;52.626;-8.668;2022-09-29T05:42:20;5.13;;;0.45;;
64351;SDS011;50680;52.626;-8.668;2022-09-29T05:44:47;4.07;;;0.40;;
64351;SDS011;50680;52.626;-8.668;2022-09-29T05:47:14;8.80;;;0.60;;
64351;SDS011;50680;52.626;-8.668;2022-09-29T05:49:41;7.97;;;0.70;;
64351;SDS011;50680;52.626;-8.668;2022-09-29T05:52:08;9.15;;;0.88;;
64351;SDS011;50680;52.626;-8.668;2022-09-29T05:54:35;8.77;;;0.45;;
64351;SDS011;50680;52.626;-8.668;2022-09-29T05:57:01;7.70;;;0.75;;
64351;SDS011;50680;52.626;-8.668;2022-09-29T05:59:28;3.88;;;0.57;;
64351;SDS011;50680;52.626;-8.668;2022-09-29T06:01:55;4.32;;;0.50;;
64351;SDS011;50680;52.626;-8.668;2022-09-29T06:04:22;6.18;;;1.00;;
64351;SDS011;50680;52.626;-8.668;2022-09-29T06:06:49;5.68;;;0.60;;
64351;SDS011;50680;52.626;-8.668;2022-09-29T06:09:16;4.57;;;0.50;;
64351;SDS011;50680;52.626;-8.668;2022-09-29T06:11:44;7.40;;;0.82;;
64351;SDS011;50680;52.626;-8.668;2022-09-29T06:14:10;4.07;;;0.60;;
64351;SDS011;50680;52.626;-8.668;2022-09-29T06:16:37;2.92;;;0.60;;
64351;SDS011;50680;52.626;-8.668;2022-09-29T06:19:04;5.65;;;0.88;;
64351;SDS011;50680;52.626;-8.668;2022-09-29T06:21:31;3.90;;;0.50;;
64351;SDS011;50680;52.626;-8.668;2022-09-29T06:24:00;3.42;;;0.50;;
64351;SDS011;50680;52.626;-8.668;2022-09-29T06:26:27;6.18;;;0.65;;
64351;SDS011;50680;52.626;-8.668;2022-09-29T06:28:55;6.03;;;0.82;;
64351;SDS011;50680;52.626;-8.668;2022-09-29T06:31:23;3.47;;;0.68;;
64351;SDS011;50680;52.626;-8.668;2022-09-29T06:33:54;5.57;;;0.80;;
64351;SDS011;50680;52.626;-8.668;2022-09-29T06:36:43;2.42;;;0.95;;
64351;SDS011;50680;52.626;-8.668;2022-09-29T06:39:29;3.95;;;0.50;;
64351;SDS011;50680;52.626;-8.668;2022-09-29T06:41:56;8.85;;;0.55;;
64351;SDS011;50680;52.626;-8.668;2022-09-29T06:44:26;6.90;;;0.82;;
64351;SDS011;50680;52.626;-8.668;2022-09-29T06:46:55;4.68;;;0.73;;
64351;SDS011;50680;52.626;-8.668;2022-09-29T06:49:23;6.05;;;0.75;;
64351;SDS011;50680;52.626;-8.668;2022-09-29T06:51:50;7.07;;;0.70;;
64351;SDS011;50680;52.626;-8.668;2022-09-29T06:54:19;2.25;;;0.60;;
64351;SDS011;50680;52.626;-8.668;2022-09-29T06:56:48;3.22;;;0.38;;
64351;SDS011;50680;52.626;-8.668;2022-09-29T06:59:16;3.05;;;0.70;;
64351;SDS011;50680;52.626;-8.668;2022-09-29T07:01:43;3.28;;;0.57;;
64351;SDS011;50680;52.626;-8.668;2022-09-29T07:04:17;1.67;;;0.40;;
64351;SDS011;50680;52.626;-8.668;2022-09-29T07:06:45;6.40;;;0.55;;
64351;SDS011;50680;52.626;-8.668;2022-09-29T07:09:13;5.40;;;0.50;;
64351;SDS011;50680;52.626;-8.668;2022-09-29T07:11:44;3.28;;;0.52;;
64351;SDS011;50680;52.626;-8.668;2022-09-29T07:14:15;4.88;;;0.63;;
64351;SDS011;50680;52.626;-8.668;2022-09-29T07:16:44;4.85;;;0.68;;
64351;SDS011;50680;52.626;-8.668;2022-09-29T07:19:14;7.30;;;0.60;;
64351;SDS011;50680;52.626;-8.668;2022-09-29T07:21:44;8.48;;;0.68;;
64351;SDS011;50680;52.626;-8.668;2022-09-29T07:24:14;1.88;;;0.43;;
64351;SDS011;50680;52.626;-8.668;2022-09-29T07:26:41;1.50;;;0.30;;
64351;SDS011;50680;52.626;-8.668;2022-09-29T07:29:09;3.33;;;0.43;;
64351;SDS011;50680;52.626;-8.668;2022-09-29T07:31:41;3.33;;;0.35;;
64351;SDS011;50680;52.626;-8.668;2022-09-29T07:34:17;4.43;;;0.40;;
64351;SDS011;50680;52.626;-8.668;2022-09-29T07:36:45;4.28;;;0.50;;
64351;SDS011;50680;52.626;-8.668;2022-09-29T07:39:12;8.15;;;0.50;;
64351;SDS011;50680;52.626;-8.668;2022-09-29T07:41:39;5.55;;;0.55;;
64351;SDS011;50680;52.626;-8.668;2022-09-29T07:44:06;6.03;;;0.32;;
64351;SDS011;50680;52.626;-8.668;2022-09-29T07:46:33;2.28;;;0.32;;
64351;SDS011;50680;52.626;-8.668;2022-09-29T07:49:00;2.25;;;0.30;;
64351;SDS011;50680;52.626;-8.668;2022-09-29T07:51:27;4.00;;;0.50;;
64351;SDS011;50680;52.626;-8.668;2022-09-29T07:53:54;5.65;;;0.43;;
64351;SDS011;50680;52.626;-8.668;2022-09-29T07:56:21;3.58;;;0.55;;
64351;SDS011;50680;52.626;-8.668;2022-09-29T07:58:49;2.50;;;0.43;;
64351;SDS011;50680;52.626;-8.668;2022-09-29T08:01:17;3.58;;;0.38;;
64351;SDS011;50680;52.626;-8.668;2022-09-29T08:03:50;2.38;;;0.40;;
64351;SDS011;50680;52.626;-8.668;2022-09-29T08:06:18;1.35;;;0.30;;
64351;SDS011;50680;52.626;-8.668;2022-09-29T08:08:47;2.53;;;0.35;;
64351;SDS011;50680;52.626;-8.668;2022-09-29T08:11:28;3.85;;;0.40;;
64351;SDS011;50680;52.626;-8.668;2022-09-29T08:13:58;4.00;;;0.60;;
64351;SDS011;50680;52.626;-8.668;2022-09-29T08:16:25;5.05;;;0.40;;
64351;SDS011;50680;52.626;-8.668;2022-09-29T08:18:52;3.40;;;0.30;;
64351;SDS011;50680;52.626;-8.668;2022-09-29T08:21:20;3.10;;;0.40;;
64351;SDS011;50680;52.626;-8.668;2022-09-29T08:23:47;4.07;;;0.32;;
64351;SDS011;50680;52.626;-8.668;2022-09-29T08:26:15;3.38;;;0.73;;
64351;SDS011;50680;52.626;-8.668;2022-09-29T08:28:47;3.53;;;0.40;;
64351;SDS011;50680;52.626;-8.668;2022-09-29T08:31:27;6.30;;;0.40;;
64351;SDS011;50680;52.626;-8.668;2022-09-29T08:33:55;4.15;;;0.60;;
64351;SDS011;50680;52.626;-8.668;2022-09-29T08:36:24;2.50;;;0.30;;
64351;SDS011;50680;52.626;-8.668;2022-09-29T08:38:52;1.95;;;0.40;;
64351;SDS011;50680;52.626;-8.668;2022-09-29T08:43:55;3.28;;;0.40;;
64351;SDS011;50680;52.626;-8.668;2022-09-29T08:46:58;4.43;;;0.30;;
64351;SDS011;50680;52.626;-8.668;2022-09-29T08:49:46;7.22;;;0.60;;
64351;SDS011;50680;52.626;-8.668;2022-09-29T08:52:19;4.95;;;0.40;;
64351;SDS011;50680;52.626;-8.668;2022-09-29T08:55:19;5.35;;;0.30;;
64351;SDS011;50680;52.626;-8.668;2022-09-29T08:57:48;5.53;;;0.50;;
64351;SDS011;50680;52.626;-8.668;2022-09-29T09:00:19;0.25;;;0.20;;
64351;SDS011;50680;52.626;-8.668;2022-09-29T09:10:42;1.27;;;0.20;;
64351;SDS011;50680;52.626;-8.668;2022-09-29T09:13:16;1.52;;;0.30;;
64351;SDS011;50680;52.626;-8.668;2022-09-29T09:16:12;5.32;;;0.40;;
64351;SDS011;50680;52.626;-8.668;2022-09-29T09:19:01;2.47;;;0.30;;
64351;SDS011;50680;52.626;-8.668;2022-09-29T09:21:42;4.63;;;0.32;;
64351;SDS011;50680;52.626;-8.668;2022-09-29T09:24:16;4.03;;;0.28;;
64351;SDS011;50680;52.626;-8.668;2022-09-29T09:26:54;1.65;;;0.73;;
64351;SDS011;50680;52.626;-8.668;2022-09-29T09:29:27;3.45;;;0.28;;
64351;SDS011;50680;52.626;-8.668;2022-09-29T09:34:55;0.80;;;0.20;;
64351;SDS011;50680;52.626;-8.668;2022-09-29T09:37:43;6.85;;;0.40;;
64351;SDS011;50680;52.626;-8.668;2022-09-29T09:40:14;3.20;;;0.30;;
64351;SDS011;50680;52.626;-8.668;2022-09-29T09:42:47;2.83;;;0.85;;
64351;SDS011;50680;52.626;-8.668;2022-09-29T09:45:28;2.33;;;0.28;;
64351;SDS011;50680;52.626;-8.668;2022-09-29T09:48:11;3.50;;;0.13;;
64351;SDS011;50680;52.626;-8.668;2022-09-29T09:50:50;0.57;;;0.20;;
64351;SDS011;50680;52.626;-8.668;2022-09-29T09:53:25;1.60;;;0.30;;
64351;SDS011;50680;52.626;-8.668;2022-09-29T09:56:15;3.35;;;0.30;;
64351;SDS011;50680;52.626;-8.668;2022-09-29T10:01:49;2.38;;;0.20;;
64351;SDS011;50680;52.626;-8.668;2022-09-29T10:04:16;1.58;;;0.30;;
64351;SDS011;50680;52.626;-8.668;2022-09-29T10:06:43;1.50;;;0.32;;
64351;SDS011;50680;52.626;-8.668;2022-09-29T10:09:13;1.73;;;0.20;;
64351;SDS011;50680;52.626;-8.668;2022-09-29T10:16:51;2.15;;;0.10;;
64351;SDS011;50680;52.626;-8.668;2022-09-29T10:22:22;1.05;;;0.40;;
64351;SDS011;50680;52.626;-8.668;2022-09-29T10:24:51;1.20;;;0.22;;
64351;SDS011;50680;52.626;-8.668;2022-09-29T10:27:23;2.58;;;0.10;;
64351;SDS011;50680;52.626;-8.668;2022-09-29T10:29:53;0.50;;;0.20;;
64351;SDS011;50680;52.626;-8.668;2022-09-29T10:32:26;2.30;;;0.20;;
64351;SDS011;50680;52.626;-8.668;2022-09-29T10:35:23;0.40;;;0.10;;
64351;SDS011;50680;52.626;-8.668;2022-09-29T10:38:00;4.72;;;0.13;;
64351;SDS011;50680;52.626;-8.668;2022-09-29T10:40:52;0.60;;;0.10;;
64351;SDS011;50680;52.626;-8.668;2022-09-29T10:43:34;0.93;;;0.13;;
64351;SDS011;50680;52.626;-8.668;2022-09-29T10:46:33;1.38;;;0.00;;
64351;SDS011;50680;52.626;-8.668;2022-09-29T10:51:49;2.05;;;0.10;;
64351;SDS011;50680;52.626;-8.668;2022-09-29T10:54:23;1.00;;;0.10;;
64351;SDS011;50680;52.626;-8.668;2022-09-29T10:56:53;1.20;;;0.32;;
64351;SDS011;50680;52.626;-8.668;2022-09-29T10:59:21;2.10;;;0.20;;
64351;SDS011;50680;52.626;-8.668;2022-09-29T11:01:54;0.30;;;0.10;;
64351;SDS011;50680;52.626;-8.668;2022-09-29T11:04:27;3.38;;;0.20;;
64351;SDS011;50680;52.626;-8.668;2022-09-29T11:07:05;0.52;;;0.20;;
64351;SDS011;50680;52.626;-8.668;2022-09-29T11:09:39;0.28;;;0.10;;
64351;SDS011;50680;52.626;-8.668;2022-09-29T11:12:31;2.30;;;0.28;;
64351;SDS011;50680;52.626;-8.668;2022-09-29T11:15:00;1.00;;;0.10;;
64351;SDS011;50680;52.626;-8.668;2022-09-29T11:17:28;0.80;;;0.10;;
64351;SDS011;50680;52.626;-8.668;2022-09-29T11:20:05;0.50;;;0.10;;
64351;SDS011;50680;52.626;-8.668;2022-09-29T11:22:46;2.65;;;0.13;;
64351;SDS011;50680;52.626;-8.668;2022-09-29T11:28:23;2.63;;;0.20;;
64351;SDS011;50680;52.626;-8.668;2022-09-29T11:33:45;0.57;;;0.15;;
64351;SDS011;50680;52.626;-8.668;2022-09-29T11:37:04;0.80;;;0.10;;
64351;SDS011;50680;52.626;-8.668;2022-09-29T11:42:30;1.40;;;0.10;;
64351;SDS011;50680;52.626;-8.668;2022-09-29T11:45:31;0.95;;;0.20;;
64351;SDS011;50680;52.626;-8.668;2022-09-29T11:50:59;2.20;;;0.13;;
64351;SDS011;50680;52.626;-8.668;2022-09-29T11:53:47;1.55;;;0.17;;
64351;SDS011;50680;52.626;-8.668;2022-09-29T12:02:07;0.70;;;0.10;;
64351;SDS011;50680;52.626;-8.668;2022-09-29T12:05:01;0.73;;;0.10;;
64351;SDS011;50680;52.626;-8.668;2022-09-29T12:07:38;0.30;;;0.08;;
64351;SDS011;50680;52.626;-8.668;2022-09-29T12:13:20;1.75;;;0.17;;
64351;SDS011;50680;52.626;-8.668;2022-09-29T12:15:59;2.75;;;0.10;;
64351;SDS011;50680;52.626;-8.668;2022-09-29T12:18:39;1.48;;;0.10;;
64351;SDS011;50680;52.626;-8.668;2022-09-29T12:21:16;0.77;;;0.20;;
64351;SDS011;50680;52.626;-8.668;2022-09-29T12:24:00;1.67;;;0.20;;
64351;SDS011;50680;52.626;-8.668;2022-09-29T12:29:06;0.65;;;0.10;;
64351;SDS011;50680;52.626;-8.668;2022-09-29T12:31:47;0.90;;;0.20;;
64351;SDS011;50680;52.626;-8.668;2022-09-29T12:37:17;2.22;;;0.25;;
64351;SDS011;50680;52.626;-8.668;2022-09-29T12:42:36;1.40;;;0.10;;
64351;SDS011;50680;52.626;-8.668;2022-09-29T12:47:54;3.97;;;0.20;;
64351;SDS011;50680;52.626;-8.668;2022-09-29T12:50:38;2.15;;;0.17;;
64351;SDS011;50680;52.626;-8.668;2022-09-29T12:55:52;1.25;;;0.25;;
64351;SDS011;50680;52.626;-8.668;2022-09-29T12:58:27;0.40;;;0.10;;
64351;SDS011;50680;52.626;-8.668;2022-09-29T13:01:19;1.40;;;0.28;;
64351;SDS011;50680;52.626;-8.668;2022-09-29T13:17:40;7.05;;;0.22;;
64351;SDS011;50680;52.626;-8.668;2022-09-29T13:20:22;1.75;;;0.22;;
64351;SDS011;50680;52.626;-8.668;2022-09-29T13:28:47;0.98;;;0.20;;
64351;SDS011;50680;52.626;-8.668;2022-09-29T13:31:23;0.38;;;0.20;;
64351;SDS011;50680;52.626;-8.668;2022-09-29T13:33:59;0.10;;;0.10;;
64351;SDS011;50680;52.626;-8.668;2022-09-29T13:36:29;0.20;;;0.10;;
64351;SDS011;50680;52.626;-8.668;2022-09-29T13:39:03;1.92;;;0.17;;
64351;SDS011;50680;52.626;-8.668;2022-09-29T13:44:04;0.80;;;0.10;;
64351;SDS011;50680;52.626;-8.668;2022-09-29T13:46:44;0.90;;;0.20;;
64351;SDS011;50680;52.626;-8.668;2022-09-29T13:49:29;0.65;;;0.20;;
64351;SDS011;50680;52.626;-8.668;2022-09-29T13:51:57;3.20;;;0.10;;
64351;SDS011;50680;52.626;-8.668;2022-09-29T14:05:05;0.20;;;0.10;;
64351;SDS011;50680;52.626;-8.668;2022-09-29T14:10:42;9.93;;;0.82;;
64351;SDS011;50680;52.626;-8.668;2022-09-29T14:16:12;6.70;;;1.20;;
64351;SDS011;50680;52.626;-8.668;2022-09-29T14:18:51;5.63;;;0.15;;
64351;SDS011;50680;52.626;-8.668;2022-09-29T14:32:53;3.67;;;0.10;;
64351;SDS011;50680;52.626;-8.668;2022-09-29T14:38:05;2.78;;;0.10;;
64351;SDS011;50680;52.626;-8.668;2022-09-29T14:40:51;5.10;;;0.47;;
64351;SDS011;50680;52.626;-8.668;2022-09-29T14:43:20;1.50;;;0.30;;
64351;SDS011;50680;52.626;-8.668;2022-09-29T14:49:02;2.08;;;0.20;;
64351;SDS011;50680;52.626;-8.668;2022-09-29T14:51:59;0.40;;;0.00;;
64351;SDS011;50680;52.626;-8.668;2022-09-29T15:02:42;2.30;;;0.20;;
64351;SDS011;50680;52.626;-8.668;2022-09-29T15:05:23;3.63;;;0.20;;
64351;SDS011;50680;52.626;-8.668;2022-09-29T15:07:56;3.50;;;0.20;;
64351;SDS011;50680;52.626;-8.668;2022-09-29T15:10:48;4.57;;;0.90;;
64351;SDS011;50680;52.626;-8.668;2022-09-29T15:16:01;0.57;;;0.10;;
64351;SDS011;50680;52.626;-8.668;2022-09-29T15:18:53;0.52;;;0.17;;
64351;SDS011;50680;52.626;-8.668;2022-09-29T15:21:35;1.00;;;0.20;;
64351;SDS011;50680;52.626;-8.668;2022-09-29T15:26:50;2.90;;;0.30;;
64351;SDS011;50680;52.626;-8.668;2022-09-29T15:29:17;1.75;;;0.10;;
64351;SDS011;50680;52.626;-8.668;2022-09-29T15:31:45;0.55;;;0.10;;
64351;SDS011;50680;52.626;-8.668;2022-09-29T15:36:46;0.20;;;0.10;;
64351;SDS011;50680;52.626;-8.668;2022-09-29T15:42:02;1.75;;;0.03;;
64351;SDS011;50680;52.626;-8.668;2022-09-29T15:44:44;2.05;;;0.17;;
64351;SDS011;50680;52.626;-8.668;2022-09-29T15:47:25;0.40;;;0.10;;
64351;SDS011;50680;52.626;-8.668;2022-09-29T15:49:54;1.73;;;0.13;;
64351;SDS011;50680;52.626;-8.668;2022-09-29T15:52:22;1.17;;;0.20;;
64351;SDS011;50680;52.626;-8.668;2022-09-29T15:54:52;1.17;;;0.10;;
64351;SDS011;50680;52.626;-8.668;2022-09-29T15:57:40;0.38;;;0.10;;
64351;SDS011;50680;52.626;-8.668;2022-09-29T16:03:03;2.03;;;0.20;;
64351;SDS011;50680;52.626;-8.668;2022-09-29T16:05:37;3.65;;;0.40;;
64351;SDS011;50680;52.626;-8.668;2022-09-29T16:08:15;3.10;;;0.40;;
64351;SDS011;50680;52.626;-8.668;2022-09-29T16:10:48;2.35;;;0.20;;
64351;SDS011;50680;52.626;-8.668;2022-09-29T16:13:24;4.63;;;0.20;;
64351;SDS011;50680;52.626;-8.668;2022-09-29T16:15:55;3.92;;;0.20;;
64351;SDS011;50680;52.626;-8.668;2022-09-29T16:21:06;1.45;;;0.20;;
64351;SDS011;50680;52.626;-8.668;2022-09-29T16:23:48;0.20;;;0.20;;
64351;SDS011;50680;52.626;-8.668;2022-09-29T16:26:18;1.75;;;0.20;;
64351;SDS011;50680;52.626;-8.668;2022-09-29T16:31:35;1.08;;;0.17;;
64351;SDS011;50680;52.626;-8.668;2022-09-29T16:34:24;0.93;;;0.10;;
64351;SDS011;50680;52.626;-8.668;2022-09-29T16:39:32;5.00;;;0.20;;
64351;SDS011;50680;52.626;-8.668;2022-09-29T16:42:16;1.80;;;0.20;;
64351;SDS011;50680;52.626;-8.668;2022-09-29T16:44:45;2.08;;;0.28;;
64351;SDS011;50680;52.626;-8.668;2022-09-29T16:47:19;1.73;;;0.30;;
64351;SDS011;50680;52.626;-8.668;2022-09-29T16:50:02;0.17;;;0.10;;
64351;SDS011;50680;52.626;-8.668;2022-09-29T17:00:33;4.43;;;0.20;;
64351;SDS011;50680;52.626;-8.668;2022-09-29T17:03:01;1.38;;;0.40;;
64351;SDS011;50680;52.626;-8.668;2022-09-29T17:05:35;2.72;;;0.10;;
64351;SDS011;50680;52.626;-8.668;2022-09-29T17:08:11;1.77;;;0.17;;
64351;SDS011;50680;52.626;-8.668;2022-09-29T17:10:41;1.27;;;0.20;;
64351;SDS011;50680;52.626;-8.668;2022-09-29T17:13:10;0.47;;;0.10;;
64351;SDS011;50680;52.626;-8.668;2022-09-29T17:15:42;1.98;;;0.30;;
64351;SDS011;50680;52.626;-8.668;2022-09-29T17:18:11;0.68;;;0.10;;
64351;SDS011;50680;52.626;-8.668;2022-09-29T17:20:39;0.45;;;0.35;;
64351;SDS011;50680;52.626;-8.668;2022-09-29T17:23:06;1.00;;;0.17;;
64351;SDS011;50680;52.626;-8.668;2022-09-29T17:25:34;0.95;;;0.30;;
64351;SDS011;50680;52.626;-8.668;2022-09-29T17:28:04;1.48;;;0.20;;
64351;SDS011;50680;52.626;-8.668;2022-09-29T17:30:41;2.80;;;0.70;;
64351;SDS011;50680;52.626;-8.668;2022-09-29T17:33:09;1.60;;;0.75;;
64351;SDS011;50680;52.626;-8.668;2022-09-29T17:35:39;1.63;;;0.93;;
64351;SDS011;50680;52.626;-8.668;2022-09-29T17:38:09;1.75;;;1.23;;
64351;SDS011;50680;52.626;-8.668;2022-09-29T17:40:56;4.60;;;1.30;;
64351;SDS011;50680;52.626;-8.668;2022-09-29T17:43:28;6.07;;;1.08;;
64351;SDS011;50680;52.626;-8.668;2022-09-29T17:45:59;1.80;;;1.13;;
64351;SDS011;50680;52.626;-8.668;2022-09-29T17:48:27;2.15;;;0.80;;
64351;SDS011;50680;52.626;-8.668;2022-09-29T17:50:55;1.92;;;1.00;;
64351;SDS011;50680;52.626;-8.668;2022-09-29T17:53:24;0.85;;;0.60;;
64351;SDS011;50680;52.626;-8.668;2022-09-29T17:55:52;1.20;;;0.90;;
64351;SDS011;50680;52.626;-8.668;2022-09-29T17:58:21;3.83;;;2.90;;
64351;SDS011;50680;52.626;-8.668;2022-09-29T18:00:50;7.22;;;5.18;;
64351;SDS011;50680;52.626;-8.668;2022-09-29T18:03:18;4.60;;;2.88;;
64351;SDS011;50680;52.626;-8.668;2022-09-29T18:05:47;5.35;;;4.38;;
64351;SDS011;50680;52.626;-8.668;2022-09-29T18:08:22;12.00;;;10.13;;
64351;SDS011;50680;52.626;-8.668;2022-09-29T18:10:52;11.13;;;7.10;;
64351;SDS011;50680;52.626;-8.668;2022-09-29T18:13:21;4.47;;;3.35;;
64351;SDS011;50680;52.626;-8.668;2022-09-29T18:15:49;2.45;;;1.00;;
64351;SDS011;50680;52.626;-8.668;2022-09-29T18:18:17;1.10;;;1.00;;
64351;SDS011;50680;52.626;-8.668;2022-09-29T18:20:47;1.02;;;0.93;;